createdAt,value
2018-07-22T00:02:21.126Z,315.63
2018-07-22T00:04:48.408Z,330.03
2018-07-22T00:07:15.842Z,323.23
2018-07-22T00:09:43.043Z,329.40
2018-07-22T00:12:10.342Z,315.73
2018-07-22T00:14:37.575Z,283.43
2018-07-22T00:17:04.774Z,298.83
2018-07-22T00:19:31.947Z,301.73
2018-07-22T00:21:59.227Z,266.97
2018-07-22T00:24:26.438Z,282.97
2018-07-22T00:26:53.687Z,282.27
2018-07-22T00:29:21.030Z,285.70
2018-07-22T00:31:48.290Z,265.93
2018-07-22T00:34:15.522Z,237.53
2018-07-22T00:36:42.754Z,243.00
2018-07-22T00:39:10.983Z,228.90
2018-07-22T00:41:38.219Z,252.33
2018-07-22T00:44:05.510Z,257.03
2018-07-22T00:46:32.788Z,229.30
2018-07-22T00:49:00.063Z,247.30
2018-07-22T00:51:27.323Z,237.90
2018-07-22T00:53:54.529Z,227.67
2018-07-22T00:56:21.766Z,253.13
2018-07-22T00:58:49.552Z,234.47
2018-07-22T01:01:17.604Z,214.57
2018-07-22T01:03:44.830Z,184.40
2018-07-22T01:06:12.155Z,194.03
2018-07-22T01:08:39.463Z,165.30
2018-07-22T01:11:06.734Z,180.10
2018-07-22T01:13:33.986Z,176.07
2018-07-22T01:16:01.217Z,175.67
2018-07-22T01:18:28.470Z,166.03
2018-07-22T01:20:55.690Z,143.37
2018-07-22T01:23:22.925Z,156.53
2018-07-22T01:25:50.162Z,148.03
2018-07-22T01:28:17.416Z,126.50
2018-07-22T01:30:44.698Z,148.63
2018-07-22T01:33:11.930Z,144.77
2018-07-22T01:35:39.050Z,152.73
2018-07-22T01:38:06.313Z,138.53
2018-07-22T01:40:33.570Z,137.03
2018-07-22T01:43:00.826Z,139.90
2018-07-22T01:45:28.151Z,143.33
2018-07-22T01:47:55.331Z,143.17
2018-07-22T01:50:22.590Z,52.80
2018-07-22T01:52:49.850Z,51.83
2018-07-22T01:55:17.138Z,142.33
2018-07-22T01:57:44.409Z,142.67
2018-07-22T02:00:11.689Z,110.83
2018-07-22T02:02:39.452Z,109.43
2018-07-22T02:05:06.807Z,110.10
2018-07-22T02:07:34.160Z,136.83
2018-07-22T02:10:01.386Z,135.13
2018-07-22T02:12:28.664Z,130.93
2018-07-22T02:14:55.890Z,133.97
2018-07-22T02:17:23.166Z,109.97
2018-07-22T02:19:50.392Z,50.43
2018-07-22T02:22:17.670Z,130.83
2018-07-22T02:24:45.025Z,134.00
2018-07-22T02:27:12.286Z,132.87
2018-07-22T02:29:39.537Z,134.17
2018-07-22T02:32:06.773Z,51.50
2018-07-22T02:34:33.963Z,51.67
2018-07-22T02:37:01.255Z,136.73
2018-07-22T02:39:28.534Z,134.63
2018-07-22T02:41:55.813Z,137.33
2018-07-22T02:44:23.139Z,135.70
2018-07-22T02:46:50.425Z,130.57
2018-07-22T02:49:17.739Z,106.77
2018-07-22T02:51:45.007Z,51.27
2018-07-22T02:54:12.222Z,133.27
2018-07-22T02:56:39.499Z,107.57
2018-07-22T02:59:06.859Z,131.30
2018-07-22T03:01:36.782Z,53.23
2018-07-22T03:04:04.915Z,49.67
2018-07-22T03:06:32.678Z,53.50
2018-07-22T03:08:59.869Z,132.40
2018-07-22T03:11:27.235Z,106.40
2018-07-22T03:13:54.515Z,104.60
2018-07-22T03:16:21.813Z,122.63
2018-07-22T03:18:49.064Z,130.60
2018-07-22T03:21:16.270Z,123.67
2018-07-22T03:23:43.407Z,96.53
2018-07-22T03:26:10.546Z,121.40
2018-07-22T03:28:37.698Z,120.70
2018-07-22T03:31:04.834Z,99.27
2018-07-22T03:33:31.970Z,45.87
2018-07-22T03:35:59.126Z,47.03
2018-07-22T03:38:26.262Z,99.07
2018-07-22T03:40:53.414Z,82.67
2018-07-22T03:43:20.537Z,44.53
2018-07-22T03:45:47.665Z,46.77
2018-07-22T03:48:14.854Z,45.47
2018-07-22T03:50:41.986Z,44.50
2018-07-22T03:53:09.102Z,42.60
2018-07-22T03:55:36.230Z,123.17
2018-07-22T03:58:03.378Z,46.47
2018-07-22T04:00:30.530Z,99.63
2018-07-22T04:02:57.649Z,44.70
2018-07-22T04:05:24.778Z,102.07
2018-07-22T04:07:51.894Z,99.80
2018-07-22T04:10:19.038Z,98.17
2018-07-22T04:12:46.150Z,123.47
2018-07-22T04:15:13.282Z,44.33
2018-07-22T04:17:40.750Z,120.40
2018-07-22T04:20:07.894Z,97.57
2018-07-22T04:22:35.030Z,42.97
2018-07-22T04:25:02.611Z,42.23
2018-07-22T04:27:29.770Z,116.47
2018-07-22T04:29:56.933Z,43.00
2018-07-22T04:32:24.070Z,43.50
2018-07-22T04:34:51.215Z,44.97
2018-07-22T04:37:18.332Z,45.83
2018-07-22T04:39:45.462Z,45.13
2018-07-22T04:42:12.574Z,45.30
2018-07-22T04:44:39.722Z,46.07
2018-07-22T04:47:06.913Z,45.53
2018-07-22T04:49:34.078Z,42.30
2018-07-22T04:52:01.228Z,42.30
2018-07-22T04:54:28.352Z,43.47
2018-07-22T04:56:55.493Z,43.10
2018-07-22T04:59:22.634Z,45.17
2018-07-22T05:01:49.758Z,91.80
2018-07-22T05:04:16.866Z,78.10
2018-07-22T05:06:43.978Z,97.23
2018-07-22T05:09:12.222Z,43.33
2018-07-22T05:11:39.690Z,42.57
2018-07-22T05:14:06.978Z,43.40
2018-07-22T05:16:34.298Z,97.37
2018-07-22T05:19:01.547Z,99.00
2018-07-22T05:21:28.658Z,6.50
2018-07-22T05:23:55.782Z,45.17
2018-07-22T05:26:22.921Z,44.07
2018-07-22T05:28:50.038Z,45.90
2018-07-22T05:31:17.401Z,48.77
2018-07-22T05:33:44.549Z,46.67
2018-07-22T05:36:11.721Z,46.23
2018-07-22T05:38:38.851Z,96.57
2018-07-22T05:41:06.454Z,10.70
2018-07-22T05:43:33.610Z,7.00
2018-07-22T05:46:00.761Z,45.87
2018-07-22T05:48:27.918Z,42.17
2018-07-22T05:50:55.070Z,44.17
2018-07-22T05:53:22.230Z,9.83
2018-07-22T05:55:49.379Z,44.50
2018-07-22T05:58:16.518Z,102.10
2018-07-22T06:00:43.650Z,100.70
2018-07-22T06:03:10.796Z,46.70
2018-07-22T06:05:37.926Z,44.50
2018-07-22T06:08:05.385Z,47.27
2018-07-22T06:10:32.518Z,44.27
2018-07-22T06:12:59.666Z,98.07
2018-07-22T06:15:26.798Z,80.10
2018-07-22T06:17:53.930Z,48.33
2018-07-22T06:20:21.046Z,41.97
2018-07-22T06:22:48.170Z,43.37
2018-07-22T06:25:15.294Z,46.13
2018-07-22T06:27:42.430Z,45.43
2018-07-22T06:30:09.570Z,47.90
2018-07-22T06:32:36.702Z,46.73
2018-07-22T06:35:04.006Z,46.47
2018-07-22T06:37:31.146Z,45.97
2018-07-22T06:39:58.302Z,47.60
2018-07-22T06:42:25.455Z,45.20
2018-07-22T06:44:52.574Z,81.00
2018-07-22T06:47:19.785Z,47.27
2018-07-22T06:49:46.998Z,84.90
2018-07-22T06:52:14.146Z,101.60
2018-07-22T06:54:41.315Z,46.60
2018-07-22T06:57:08.540Z,126.20
2018-07-22T06:59:35.714Z,98.53
2018-07-22T07:02:02.877Z,105.33
2018-07-22T07:04:30.006Z,48.70
2018-07-22T07:06:57.138Z,46.37
2018-07-22T07:09:24.266Z,97.77
2018-07-22T07:11:51.426Z,44.47
2018-07-22T07:14:18.546Z,46.07
2018-07-22T07:16:45.670Z,45.33
2018-07-22T07:19:12.882Z,95.93
2018-07-22T07:21:40.026Z,44.43
2018-07-22T07:24:07.192Z,44.77
2018-07-22T07:26:34.346Z,96.37
2018-07-22T07:29:01.466Z,24.50
2018-07-22T07:31:28.650Z,98.37
2018-07-22T07:33:55.786Z,47.43
2018-07-22T07:36:22.938Z,82.97
2018-07-22T07:38:50.060Z,47.60
2018-07-22T07:41:17.197Z,48.60
2018-07-22T07:43:44.334Z,48.90
2018-07-22T07:46:12.193Z,101.93
2018-07-22T07:48:39.322Z,47.00
2018-07-22T07:51:06.462Z,46.00
2018-07-22T07:53:33.598Z,45.80
2018-07-22T07:56:00.782Z,48.30
2018-07-22T07:58:27.910Z,47.13
2018-07-22T08:00:55.065Z,100.00
2018-07-22T08:03:22.202Z,47.40
2018-07-22T08:05:49.324Z,49.43
2018-07-22T08:08:16.453Z,48.90
2018-07-22T08:10:43.593Z,121.23
2018-07-22T08:13:10.735Z,141.07
2018-07-22T08:15:38.090Z,198.50
2018-07-22T08:18:05.248Z,473.93
2018-07-22T08:20:32.382Z,540.50
2018-07-22T08:22:59.514Z,485.43
2018-07-22T08:25:26.634Z,394.97
2018-07-22T08:27:53.750Z,383.23
2018-07-22T08:30:20.907Z,286.03
2018-07-22T08:32:48.047Z,292.57
2018-07-22T08:35:15.222Z,270.83
2018-07-22T08:37:42.389Z,265.00
2018-07-22T08:40:09.521Z,274.83
2018-07-22T08:42:36.706Z,297.97
2018-07-22T08:45:04.570Z,309.20
2018-07-22T08:47:31.738Z,308.13
2018-07-22T08:49:58.850Z,278.40
2018-07-22T08:52:25.961Z,270.27
2018-07-22T08:54:53.110Z,278.17
2018-07-22T08:57:20.238Z,326.33
2018-07-22T08:59:47.387Z,311.50
2018-07-22T09:02:14.589Z,326.33
2018-07-22T09:04:41.750Z,336.70
2018-07-22T09:07:08.902Z,364.93
2018-07-22T09:09:36.063Z,364.13
2018-07-22T09:12:03.293Z,375.93
2018-07-22T09:14:30.458Z,372.50
2018-07-22T09:16:57.610Z,424.03
2018-07-22T09:19:24.754Z,432.37
2018-07-22T09:21:51.902Z,434.47
2018-07-22T09:24:19.058Z,435.87
2018-07-22T09:26:46.228Z,422.30
2018-07-22T09:29:13.372Z,429.83
2018-07-22T09:31:40.518Z,415.10
2018-07-22T09:34:07.681Z,406.47
2018-07-22T09:36:34.959Z,464.53
2018-07-22T09:39:02.079Z,505.60
2018-07-22T09:41:29.331Z,528.70
2018-07-22T09:43:56.715Z,590.40
2018-07-22T09:46:24.130Z,595.90
2018-07-22T09:48:51.517Z,611.00
2018-07-22T09:51:18.755Z,590.80
2018-07-22T09:53:46.035Z,561.33
2018-07-22T09:56:13.255Z,597.80
2018-07-22T09:58:40.454Z,639.73
2018-07-22T10:01:07.614Z,663.93
2018-07-22T10:03:34.765Z,686.70
2018-07-22T10:06:02.088Z,680.90
2018-07-22T10:08:29.354Z,693.37
2018-07-22T10:10:56.584Z,702.73
2018-07-22T10:13:23.835Z,698.57
2018-07-22T10:15:51.002Z,690.93
2018-07-22T10:18:18.182Z,690.87
2018-07-22T10:20:45.347Z,664.53
2018-07-22T10:23:12.498Z,649.93
2018-07-22T10:25:39.742Z,689.67
2018-07-22T10:28:06.920Z,695.83
2018-07-22T10:30:34.066Z,696.30
2018-07-22T10:33:01.338Z,696.83
2018-07-22T10:35:28.502Z,693.93
2018-07-22T10:37:55.635Z,714.67
2018-07-22T10:40:22.787Z,726.63
2018-07-22T10:42:49.911Z,712.93
2018-07-22T10:45:17.102Z,723.57
2018-07-22T10:47:44.258Z,685.33
2018-07-22T10:50:11.394Z,653.63
2018-07-22T10:52:38.538Z,653.80
2018-07-22T10:55:05.711Z,653.00
2018-07-22T10:57:32.854Z,595.77
2018-07-22T11:00:00.250Z,624.83
2018-07-22T11:02:27.671Z,645.60
2018-07-22T11:04:54.741Z,605.40
2018-07-22T11:07:22.326Z,591.83
2018-07-22T11:09:49.466Z,599.90
2018-07-22T11:12:16.617Z,603.87
2018-07-22T11:14:43.853Z,590.07
2018-07-22T11:17:11.054Z,601.67
2018-07-22T11:19:38.185Z,606.97
2018-07-22T11:22:05.602Z,561.27
2018-07-22T11:24:32.814Z,601.87
2018-07-22T11:26:59.970Z,570.57
2018-07-22T11:29:27.094Z,543.57
2018-07-22T11:31:54.250Z,557.67
2018-07-22T11:34:21.377Z,516.23
2018-07-22T11:36:48.534Z,511.23
2018-07-22T11:39:15.657Z,508.00
2018-07-22T11:41:42.818Z,498.27
2018-07-22T11:44:10.006Z,513.97
2018-07-22T11:46:38.161Z,481.67
2018-07-22T11:49:05.917Z,471.50
2018-07-22T11:51:33.215Z,483.93
2018-07-22T11:54:00.535Z,483.70
2018-07-22T11:56:27.779Z,473.33
2018-07-22T11:58:55.238Z,495.23
2018-07-22T12:01:22.564Z,493.73
2018-07-22T12:03:49.844Z,449.93
2018-07-22T12:06:17.199Z,461.67
2018-07-22T12:08:44.418Z,474.53
2018-07-22T12:11:11.716Z,466.30
2018-07-22T12:13:39.158Z,472.27
2018-07-22T12:16:06.483Z,492.83
2018-07-22T12:18:33.719Z,473.00
2018-07-22T12:21:00.886Z,505.10
2018-07-22T12:23:28.082Z,509.20
2018-07-22T12:25:55.281Z,505.83
2018-07-22T12:28:22.508Z,477.57
2018-07-22T12:30:49.670Z,463.50
2018-07-22T12:33:16.833Z,487.47
2018-07-22T12:35:44.002Z,481.23
2018-07-22T12:38:11.159Z,467.13
2018-07-22T12:40:38.322Z,462.50
2018-07-22T12:43:05.574Z,489.70
2018-07-22T12:45:32.726Z,478.50
2018-07-22T12:47:59.998Z,431.70
2018-07-22T12:50:27.181Z,476.27
2018-07-22T12:52:54.342Z,462.27
2018-07-22T12:55:21.611Z,435.97
2018-07-22T12:57:48.995Z,414.30
2018-07-22T13:00:16.138Z,407.07
2018-07-22T13:02:43.335Z,395.67
2018-07-22T13:05:10.519Z,419.37
2018-07-22T13:07:37.702Z,397.60
2018-07-22T13:10:05.122Z,424.77
2018-07-22T13:12:32.458Z,439.77
2018-07-22T13:14:59.686Z,395.50
2018-07-22T13:17:26.983Z,391.83
2018-07-22T13:19:54.229Z,396.77
2018-07-22T13:22:21.379Z,404.27
2018-07-22T13:24:48.662Z,423.07
2018-07-22T13:27:16.598Z,409.40
2018-07-22T13:29:43.846Z,405.40
2018-07-22T13:32:11.045Z,405.10
2018-07-22T13:34:38.234Z,411.17
2018-07-22T13:37:05.961Z,428.77
2018-07-22T13:39:33.135Z,459.83
2018-07-22T13:42:00.297Z,431.23
2018-07-22T13:44:27.438Z,429.57
2018-07-22T13:46:54.570Z,434.97
2018-07-22T13:49:21.704Z,427.10
2018-07-22T13:51:48.880Z,412.17
2018-07-22T13:54:16.051Z,449.33
2018-07-22T13:56:43.182Z,424.90
2018-07-22T13:59:10.414Z,419.87
2018-07-22T14:01:37.570Z,404.83
2018-07-22T14:04:05.071Z,397.13
2018-07-22T14:06:32.204Z,343.80
2018-07-22T14:08:59.351Z,329.93
2018-07-22T14:11:26.503Z,311.27
2018-07-22T14:13:53.834Z,310.67
2018-07-22T14:16:20.957Z,288.03
2018-07-22T14:18:48.091Z,288.60
2018-07-22T14:21:15.291Z,275.43
2018-07-22T14:23:42.470Z,284.60
2018-07-22T14:26:09.612Z,277.80
2018-07-22T14:28:36.738Z,263.37
2018-07-22T14:31:03.890Z,271.60
2018-07-22T14:33:31.038Z,264.40
2018-07-22T14:35:58.198Z,252.37
2018-07-22T14:38:25.330Z,265.97
2018-07-22T14:40:52.594Z,240.50
2018-07-22T14:43:19.710Z,244.37
2018-07-22T14:45:46.837Z,243.47
2018-07-22T14:48:13.979Z,227.67
2018-07-22T14:50:41.133Z,234.07
2018-07-22T14:53:08.276Z,233.27
2018-07-22T14:55:35.446Z,252.10
2018-07-22T14:58:02.709Z,232.10
2018-07-22T15:00:29.882Z,240.77
2018-07-22T15:02:57.300Z,236.43
2018-07-22T15:05:24.470Z,244.43
2018-07-22T15:07:51.621Z,230.70
2018-07-22T15:10:19.002Z,237.17
2018-07-22T15:12:46.175Z,234.67
2018-07-22T15:15:13.442Z,254.23
2018-07-22T15:17:40.636Z,244.87
2018-07-22T15:20:07.869Z,261.27
2018-07-22T15:22:35.074Z,237.80
2018-07-22T15:25:02.254Z,255.07
2018-07-22T15:27:29.625Z,252.33
2018-07-22T15:29:56.902Z,261.37
2018-07-22T15:32:24.054Z,260.87
2018-07-22T15:34:51.234Z,302.13
2018-07-22T15:37:18.510Z,276.50
2018-07-22T15:39:45.670Z,290.77
2018-07-22T15:42:12.846Z,282.50
2018-07-22T15:44:40.122Z,291.77
2018-07-22T15:47:07.286Z,290.13
2018-07-22T15:49:34.460Z,296.63
2018-07-22T15:52:01.627Z,286.60
2018-07-22T15:54:28.778Z,281.33
2018-07-22T15:56:55.961Z,298.63
2018-07-22T15:59:23.146Z,288.40
2018-07-22T16:01:50.302Z,288.17
2018-07-22T16:04:17.454Z,274.23
2018-07-22T16:06:44.602Z,282.00
2018-07-22T16:09:12.108Z,294.73
2018-07-22T16:11:39.590Z,320.90
2018-07-22T16:14:06.777Z,318.77
2018-07-22T16:16:33.962Z,300.33
2018-07-22T16:19:01.162Z,359.20
2018-07-22T16:21:28.370Z,400.37
2018-07-22T16:23:55.529Z,351.30
2018-07-22T16:26:22.707Z,370.37
2018-07-22T16:28:49.848Z,355.07
2018-07-22T16:31:17.001Z,362.97
2018-07-22T16:33:44.167Z,367.33
2018-07-22T16:36:11.270Z,366.27
2018-07-22T16:38:38.389Z,339.17
2018-07-22T16:41:05.498Z,330.47
2018-07-22T16:43:32.625Z,318.40
2018-07-22T16:45:59.749Z,327.33
2018-07-22T16:48:26.862Z,316.73
2018-07-22T16:50:53.996Z,291.90
2018-07-22T16:53:21.118Z,287.80
2018-07-22T16:55:48.239Z,283.20
2018-07-22T16:58:15.380Z,273.50
2018-07-22T17:00:42.522Z,264.33
2018-07-22T17:03:09.673Z,253.90
2018-07-22T17:05:36.833Z,272.83
2018-07-22T17:08:04.006Z,272.53
2018-07-22T17:10:31.590Z,249.53
2018-07-22T17:12:58.754Z,245.20
2018-07-22T17:15:25.887Z,272.53
2018-07-22T17:17:53.046Z,240.43
2018-07-22T17:20:20.228Z,244.43
2018-07-22T17:22:47.353Z,231.83
2018-07-22T17:25:14.493Z,246.67
2018-07-22T17:27:41.638Z,243.53
2018-07-22T17:30:08.901Z,245.73
2018-07-22T17:32:36.045Z,247.23
2018-07-22T17:35:03.230Z,243.10
2018-07-22T17:37:30.386Z,258.00
2018-07-22T17:39:58.638Z,242.47
2018-07-22T17:42:26.738Z,236.40
2018-07-22T17:44:53.926Z,239.93
2018-07-22T17:47:21.061Z,238.90
2018-07-22T17:49:48.202Z,254.40
2018-07-22T17:52:15.349Z,237.37
2018-07-22T17:54:42.486Z,226.60
2018-07-22T17:57:09.622Z,242.23
2018-07-22T17:59:36.912Z,230.20
2018-07-22T18:02:05.137Z,231.93
2018-07-22T18:04:32.262Z,232.23
2018-07-22T18:06:59.385Z,225.20
2018-07-22T18:09:26.506Z,226.53
2018-07-22T18:11:53.622Z,241.03
2018-07-22T18:14:20.765Z,218.80
2018-07-22T18:16:47.898Z,220.07
2018-07-22T18:19:15.006Z,216.73
2018-07-22T18:21:42.122Z,233.23
2018-07-22T18:24:09.386Z,227.43
2018-07-22T18:26:36.703Z,217.90
2018-07-22T18:29:03.781Z,233.23
2018-07-22T18:31:30.910Z,215.50
2018-07-22T18:33:58.058Z,210.80
2018-07-22T18:36:25.180Z,209.20
2018-07-22T18:38:52.302Z,223.00
2018-07-22T18:41:19.431Z,226.67
2018-07-22T18:43:46.590Z,218.17
2018-07-22T18:46:13.781Z,227.67
2018-07-22T18:48:40.995Z,216.03
2018-07-22T18:51:08.083Z,212.77
2018-07-22T18:53:35.202Z,204.90
2018-07-22T18:56:02.414Z,227.37
2018-07-22T18:58:29.554Z,221.90
2018-07-22T19:00:56.690Z,228.47
2018-07-22T19:03:23.818Z,230.37
2018-07-22T19:05:50.950Z,227.07
2018-07-22T19:08:18.073Z,217.47
2018-07-22T19:10:45.215Z,224.27
2018-07-22T19:13:12.388Z,223.17
2018-07-22T19:15:39.491Z,236.27
2018-07-22T19:18:07.019Z,220.47
2018-07-22T19:20:34.158Z,232.43
2018-07-22T19:23:01.329Z,216.03
2018-07-22T19:25:28.478Z,225.70
2018-07-22T19:27:55.602Z,219.63
2018-07-22T19:30:22.809Z,228.37
2018-07-22T19:32:49.886Z,237.73
2018-07-22T19:35:17.009Z,240.10
2018-07-22T19:37:44.146Z,221.40
2018-07-22T19:40:11.330Z,225.57
2018-07-22T19:42:38.454Z,212.30
2018-07-22T19:45:05.598Z,219.57
2018-07-22T19:47:32.714Z,226.40
2018-07-22T19:49:59.850Z,211.60
2018-07-22T19:52:26.994Z,206.40
2018-07-22T19:54:54.122Z,204.17
2018-07-22T19:57:21.250Z,219.03
2018-07-22T19:59:48.400Z,228.60
2018-07-22T20:02:15.532Z,201.93
2018-07-22T20:04:42.651Z,212.43
2018-07-22T20:07:09.846Z,218.43
2018-07-22T20:09:36.959Z,212.37
2018-07-22T20:12:04.103Z,217.87
2018-07-22T20:14:31.221Z,220.37
2018-07-22T20:16:58.361Z,208.73
2018-07-22T20:19:25.473Z,206.57
2018-07-22T20:21:52.618Z,214.13
2018-07-22T20:24:19.856Z,204.23
2018-07-22T20:26:46.906Z,202.40
2018-07-22T20:29:14.518Z,212.00
2018-07-22T20:31:41.719Z,222.80
2018-07-22T20:34:08.826Z,220.83
2018-07-22T20:36:35.974Z,193.70
2018-07-22T20:39:05.386Z,217.87
2018-07-22T20:41:32.506Z,208.77
2018-07-22T20:43:59.634Z,202.70
2018-07-22T20:46:26.754Z,211.50
2018-07-22T20:48:53.878Z,209.70
2018-07-22T20:51:21.066Z,209.93
2018-07-22T20:53:48.133Z,197.60
2018-07-22T20:56:15.332Z,213.23
2018-07-22T20:58:42.446Z,211.13
2018-07-22T21:01:09.610Z,231.83
2018-07-22T21:03:36.754Z,221.70
2018-07-22T21:06:03.918Z,228.80
2018-07-22T21:08:31.053Z,205.57
2018-07-22T21:10:58.238Z,205.40
2018-07-22T21:13:26.518Z,226.93
2018-07-22T21:15:53.682Z,212.53
2018-07-22T21:18:20.849Z,226.17
2018-07-22T21:20:48.054Z,221.57
2018-07-22T21:23:15.223Z,203.40
2018-07-22T21:25:42.407Z,218.70
2018-07-22T21:28:09.553Z,220.07
2018-07-22T21:30:36.730Z,215.93
2018-07-22T21:33:03.914Z,219.90
2018-07-22T21:35:31.050Z,205.63
2018-07-22T21:37:58.339Z,222.33
2018-07-22T21:40:25.574Z,220.57
2018-07-22T21:42:52.694Z,214.77
2018-07-22T21:45:19.833Z,212.07
2018-07-22T21:47:47.003Z,219.43
2018-07-22T21:50:14.170Z,213.07
2018-07-22T21:52:41.353Z,213.23
2018-07-22T21:55:08.510Z,215.47
2018-07-22T21:57:36.005Z,225.63
2018-07-22T22:00:06.035Z,222.30
2018-07-22T22:02:34.130Z,219.73
2018-07-22T22:05:02.510Z,218.10
2018-07-22T22:07:29.895Z,224.57
2018-07-22T22:09:57.164Z,217.07
2018-07-22T22:12:24.289Z,210.90
2018-07-22T22:14:51.414Z,220.70
2018-07-22T22:17:18.636Z,221.87
2018-07-22T22:19:45.690Z,215.07
2018-07-22T22:22:12.817Z,204.17
2018-07-22T22:24:40.082Z,208.60
2018-07-22T22:27:07.286Z,213.07
2018-07-22T22:29:34.414Z,208.67
2018-07-22T22:32:01.562Z,213.50
2018-07-22T22:34:28.681Z,198.87
2018-07-22T22:36:55.807Z,200.53
2018-07-22T22:39:22.941Z,198.63
2018-07-22T22:41:50.050Z,205.40
2018-07-22T22:44:17.170Z,221.13
2018-07-22T22:46:44.281Z,217.50
2018-07-22T22:49:11.425Z,199.67
2018-07-22T22:51:38.554Z,205.97
2018-07-22T22:54:05.735Z,206.57
2018-07-22T22:56:32.870Z,209.83
2018-07-22T22:59:11.710Z,208.83
2018-07-22T23:01:38.882Z,209.90
2018-07-22T23:04:06.047Z,222.60
2018-07-22T23:06:33.222Z,217.07
2018-07-22T23:09:00.374Z,212.03
2018-07-22T23:11:27.510Z,214.00
2018-07-22T23:13:54.694Z,212.60
2018-07-22T23:16:21.838Z,208.17
2018-07-22T23:18:48.985Z,208.87
2018-07-22T23:21:16.153Z,202.00
2018-07-22T23:23:43.409Z,210.97
2018-07-22T23:26:10.574Z,209.37
2018-07-22T23:28:37.731Z,219.17
2018-07-22T23:31:04.978Z,208.20
2018-07-22T23:33:32.118Z,210.03
2018-07-22T23:35:59.272Z,197.23
2018-07-22T23:38:26.438Z,205.37
2018-07-22T23:40:53.635Z,219.00
2018-07-22T23:43:20.838Z,190.37
2018-07-22T23:45:47.982Z,200.27
2018-07-22T23:48:15.117Z,204.90
2018-07-22T23:50:42.302Z,193.57
2018-07-22T23:53:09.494Z,199.87
2018-07-22T23:55:36.770Z,213.77
2018-07-22T23:58:04.030Z,196.90
